sensor_id;sensor_type;location;lat;lon;timestamp;P1;durP1;ratioP1;P2;durP2;ratioP2
11681;SDS011;5897;42.640;23.310;2023-06-26T00:01:07;18.30;;;16.25;;
11681;SDS011;5897;42.640;23.310;2023-06-26T00:03:34;18.75;;;16.75;;
11681;SDS011;5897;42.640;23.310;2023-06-26T00:06:00;19.55;;;17.48;;
11681;SDS011;5897;42.640;23.310;2023-06-26T00:08:27;18.73;;;16.67;;
11681;SDS011;5897;42.640;23.310;2023-06-26T00:10:54;18.23;;;15.95;;
11681;SDS011;5897;42.640;23.310;2023-06-26T00:13:23;18.30;;;16.42;;
11681;SDS011;5897;42.640;23.310;2023-06-26T00:15:50;18.15;;;16.20;;
11681;SDS011;5897;42.640;23.310;2023-06-26T00:18:17;18.00;;;16.05;;
11681;SDS011;5897;42.640;23.310;2023-06-26T00:20:44;17.60;;;15.80;;
11681;SDS011;5897;42.640;23.310;2023-06-26T00:23:11;17.10;;;15.30;;
11681;SDS011;5897;42.640;23.310;2023-06-26T00:25:41;18.70;;;15.98;;
11681;SDS011;5897;42.640;23.310;2023-06-26T00:28:09;17.15;;;15.32;;
11681;SDS011;5897;42.640;23.310;2023-06-26T00:30:37;17.80;;;15.70;;
11681;SDS011;5897;42.640;23.310;2023-06-26T00:33:04;15.82;;;14.18;;
11681;SDS011;5897;42.640;23.310;2023-06-26T00:35:30;16.33;;;14.63;;
11681;SDS011;5897;42.640;23.310;2023-06-26T00:37:57;15.38;;;13.77;;
11681;SDS011;5897;42.640;23.310;2023-06-26T00:40:24;16.02;;;14.35;;
11681;SDS011;5897;42.640;23.310;2023-06-26T00:42:51;16.83;;;14.55;;
11681;SDS011;5897;42.640;23.310;2023-06-26T00:45:18;14.25;;;12.85;;
11681;SDS011;5897;42.640;23.310;2023-06-26T00:47:46;14.48;;;13.07;;
11681;SDS011;5897;42.640;23.310;2023-06-26T00:50:13;15.18;;;13.38;;
11681;SDS011;5897;42.640;23.310;2023-06-26T00:52:42;14.85;;;13.35;;
11681;SDS011;5897;42.640;23.310;2023-06-26T00:55:09;13.80;;;12.40;;
11681;SDS011;5897;42.640;23.310;2023-06-26T00:57:36;14.85;;;12.40;;
11681;SDS011;5897;42.640;23.310;2023-06-26T01:00:04;13.77;;;12.45;;
11681;SDS011;5897;42.640;23.310;2023-06-26T01:02:31;14.20;;;12.80;;
11681;SDS011;5897;42.640;23.310;2023-06-26T01:05:00;15.07;;;12.50;;
11681;SDS011;5897;42.640;23.310;2023-06-26T01:07:31;13.98;;;12.20;;
11681;SDS011;5897;42.640;23.310;2023-06-26T01:10:01;14.07;;;12.38;;
11681;SDS011;5897;42.640;23.310;2023-06-26T01:12:29;13.32;;;11.93;;
11681;SDS011;5897;42.640;23.310;2023-06-26T01:14:56;13.65;;;12.15;;
11681;SDS011;5897;42.640;23.310;2023-06-26T01:17:23;15.43;;;12.52;;
11681;SDS011;5897;42.640;23.310;2023-06-26T01:19:50;13.85;;;12.55;;
11681;SDS011;5897;42.640;23.310;2023-06-26T01:22:23;13.60;;;12.30;;
11681;SDS011;5897;42.640;23.310;2023-06-26T01:24:56;14.15;;;12.85;;
11681;SDS011;5897;42.640;23.310;2023-06-26T01:27:36;14.35;;;12.88;;
11681;SDS011;5897;42.640;23.310;2023-06-26T01:30:04;14.38;;;12.70;;
11681;SDS011;5897;42.640;23.310;2023-06-26T01:32:33;14.15;;;12.65;;
11681;SDS011;5897;42.640;23.310;2023-06-26T01:35:01;13.88;;;12.50;;
11681;SDS011;5897;42.640;23.310;2023-06-26T01:37:28;13.60;;;11.98;;
11681;SDS011;5897;42.640;23.310;2023-06-26T01:39:55;15.52;;;12.77;;
11681;SDS011;5897;42.640;23.310;2023-06-26T01:42:21;14.02;;;12.63;;
11681;SDS011;5897;42.640;23.310;2023-06-26T01:44:50;14.13;;;12.63;;
11681;SDS011;5897;42.640;23.310;2023-06-26T01:47:19;14.73;;;13.02;;
11681;SDS011;5897;42.640;23.310;2023-06-26T01:49:52;13.88;;;12.48;;
11681;SDS011;5897;42.640;23.310;2023-06-26T01:52:25;13.95;;;12.50;;
11681;SDS011;5897;42.640;23.310;2023-06-26T01:54:56;16.67;;;13.38;;
11681;SDS011;5897;42.640;23.310;2023-06-26T01:57:27;13.93;;;12.48;;
11681;SDS011;5897;42.640;23.310;2023-06-26T01:59:57;15.10;;;13.07;;
11681;SDS011;5897;42.640;23.310;2023-06-26T02:02:25;14.23;;;12.85;;
11681;SDS011;5897;42.640;23.310;2023-06-26T02:04:52;14.57;;;12.48;;
11681;SDS011;5897;42.640;23.310;2023-06-26T02:07:18;15.57;;;13.00;;
11681;SDS011;5897;42.640;23.310;2023-06-26T02:09:45;13.57;;;12.25;;
11681;SDS011;5897;42.640;23.310;2023-06-26T02:12:12;14.07;;;12.57;;
11681;SDS011;5897;42.640;23.310;2023-06-26T02:14:39;14.07;;;12.68;;
11681;SDS011;5897;42.640;23.310;2023-06-26T02:17:07;14.80;;;12.35;;
11681;SDS011;5897;42.640;23.310;2023-06-26T02:19:34;14.25;;;12.38;;
11681;SDS011;5897;42.640;23.310;2023-06-26T02:22:01;14.65;;;13.15;;
11681;SDS011;5897;42.640;23.310;2023-06-26T02:24:28;14.75;;;12.95;;
11681;SDS011;5897;42.640;23.310;2023-06-26T02:26:55;14.38;;;13.07;;
11681;SDS011;5897;42.640;23.310;2023-06-26T02:29:22;15.05;;;13.45;;
11681;SDS011;5897;42.640;23.310;2023-06-26T02:31:49;15.27;;;13.77;;
11681;SDS011;5897;42.640;23.310;2023-06-26T02:34:17;14.93;;;13.45;;
11681;SDS011;5897;42.640;23.310;2023-06-26T02:36:44;14.57;;;13.13;;
11681;SDS011;5897;42.640;23.310;2023-06-26T02:39:10;19.27;;;13.73;;
11681;SDS011;5897;42.640;23.310;2023-06-26T02:41:37;15.80;;;14.30;;
11681;SDS011;5897;42.640;23.310;2023-06-26T02:44:04;15.52;;;13.82;;
11681;SDS011;5897;42.640;23.310;2023-06-26T02:46:31;16.30;;;14.57;;
11681;SDS011;5897;42.640;23.310;2023-06-26T02:48:58;15.88;;;14.10;;
11681;SDS011;5897;42.640;23.310;2023-06-26T02:51:27;15.95;;;14.25;;
11681;SDS011;5897;42.640;23.310;2023-06-26T02:53:53;15.63;;;14.02;;
11681;SDS011;5897;42.640;23.310;2023-06-26T02:56:20;16.40;;;14.85;;
11681;SDS011;5897;42.640;23.310;2023-06-26T02:58:47;15.95;;;14.35;;
11681;SDS011;5897;42.640;23.310;2023-06-26T03:01:13;16.15;;;14.70;;
11681;SDS011;5897;42.640;23.310;2023-06-26T03:03:40;17.40;;;15.65;;
11681;SDS011;5897;42.640;23.310;2023-06-26T03:06:07;17.15;;;15.45;;
11681;SDS011;5897;42.640;23.310;2023-06-26T03:11:04;17.58;;;15.90;;
11681;SDS011;5897;42.640;23.310;2023-06-26T03:13:31;17.45;;;15.50;;
11681;SDS011;5897;42.640;23.310;2023-06-26T03:15:58;17.33;;;15.63;;
11681;SDS011;5897;42.640;23.310;2023-06-26T03:18:25;18.35;;;16.42;;
11681;SDS011;5897;42.640;23.310;2023-06-26T03:20:51;16.63;;;15.13;;
11681;SDS011;5897;42.640;23.310;2023-06-26T03:23:19;17.90;;;16.10;;
11681;SDS011;5897;42.640;23.310;2023-06-26T03:25:48;17.83;;;15.98;;
11681;SDS011;5897;42.640;23.310;2023-06-26T03:28:15;17.20;;;15.50;;
11681;SDS011;5897;42.640;23.310;2023-06-26T03:30:42;17.45;;;15.82;;
11681;SDS011;5897;42.640;23.310;2023-06-26T03:33:09;17.63;;;15.93;;
11681;SDS011;5897;42.640;23.310;2023-06-26T03:35:36;18.42;;;16.50;;
11681;SDS011;5897;42.640;23.310;2023-06-26T03:38:03;17.65;;;15.98;;
11681;SDS011;5897;42.640;23.310;2023-06-26T03:40:30;17.33;;;15.68;;
11681;SDS011;5897;42.640;23.310;2023-06-26T03:42:59;18.00;;;16.30;;
11681;SDS011;5897;42.640;23.310;2023-06-26T03:45:25;17.42;;;15.80;;
11681;SDS011;5897;42.640;23.310;2023-06-26T03:47:52;18.25;;;16.55;;
11681;SDS011;5897;42.640;23.310;2023-06-26T03:50:19;18.58;;;16.83;;
11681;SDS011;5897;42.640;23.310;2023-06-26T03:52:46;18.88;;;16.95;;
11681;SDS011;5897;42.640;23.310;2023-06-26T03:55:12;18.67;;;16.92;;
11681;SDS011;5897;42.640;23.310;2023-06-26T03:57:39;17.63;;;16.00;;
11681;SDS011;5897;42.640;23.310;2023-06-26T04:00:08;17.52;;;15.73;;
11681;SDS011;5897;42.640;23.310;2023-06-26T04:02:38;17.05;;;15.52;;
11681;SDS011;5897;42.640;23.310;2023-06-26T04:05:05;17.98;;;16.17;;
11681;SDS011;5897;42.640;23.310;2023-06-26T04:07:32;17.60;;;15.90;;
11681;SDS011;5897;42.640;23.310;2023-06-26T04:09:59;16.55;;;14.88;;
11681;SDS011;5897;42.640;23.310;2023-06-26T04:12:26;16.67;;;14.98;;
11681;SDS011;5897;42.640;23.310;2023-06-26T04:14:53;17.48;;;15.88;;
11681;SDS011;5897;42.640;23.310;2023-06-26T04:17:21;16.50;;;15.00;;
11681;SDS011;5897;42.640;23.310;2023-06-26T04:19:48;16.67;;;15.07;;
11681;SDS011;5897;42.640;23.310;2023-06-26T04:22:15;16.50;;;15.10;;
11681;SDS011;5897;42.640;23.310;2023-06-26T04:24:41;15.50;;;14.10;;
11681;SDS011;5897;42.640;23.310;2023-06-26T04:27:08;15.90;;;14.40;;
11681;SDS011;5897;42.640;23.310;2023-06-26T04:29:35;15.52;;;14.05;;
11681;SDS011;5897;42.640;23.310;2023-06-26T04:32:02;16.77;;;14.65;;
11681;SDS011;5897;42.640;23.310;2023-06-26T04:34:31;16.48;;;14.90;;
11681;SDS011;5897;42.640;23.310;2023-06-26T04:37:00;15.65;;;13.98;;
11681;SDS011;5897;42.640;23.310;2023-06-26T04:39:29;16.02;;;14.52;;
11681;SDS011;5897;42.640;23.310;2023-06-26T04:41:56;16.70;;;14.98;;
11681;SDS011;5897;42.640;23.310;2023-06-26T04:44:23;16.52;;;15.02;;
11681;SDS011;5897;42.640;23.310;2023-06-26T04:46:50;16.83;;;15.13;;
11681;SDS011;5897;42.640;23.310;2023-06-26T04:49:18;17.73;;;14.70;;
11681;SDS011;5897;42.640;23.310;2023-06-26T04:51:46;16.90;;;15.30;;
11681;SDS011;5897;42.640;23.310;2023-06-26T04:54:13;15.75;;;14.23;;
11681;SDS011;5897;42.640;23.310;2023-06-26T04:56:40;16.45;;;14.95;;
11681;SDS011;5897;42.640;23.310;2023-06-26T04:59:08;16.55;;;14.98;;
11681;SDS011;5897;42.640;23.310;2023-06-26T05:01:38;15.52;;;13.95;;
11681;SDS011;5897;42.640;23.310;2023-06-26T05:04:05;16.10;;;14.52;;
11681;SDS011;5897;42.640;23.310;2023-06-26T05:06:32;15.77;;;13.90;;
11681;SDS011;5897;42.640;23.310;2023-06-26T05:09:00;15.73;;;14.30;;
11681;SDS011;5897;42.640;23.310;2023-06-26T05:11:27;16.30;;;14.63;;
11681;SDS011;5897;42.640;23.310;2023-06-26T05:13:53;16.55;;;14.95;;
11681;SDS011;5897;42.640;23.310;2023-06-26T05:16:20;16.17;;;14.52;;
11681;SDS011;5897;42.640;23.310;2023-06-26T05:18:47;16.83;;;15.10;;
11681;SDS011;5897;42.640;23.310;2023-06-26T05:21:13;15.98;;;14.27;;
11681;SDS011;5897;42.640;23.310;2023-06-26T05:23:42;15.45;;;13.95;;
11681;SDS011;5897;42.640;23.310;2023-06-26T05:26:11;16.60;;;14.18;;
11681;SDS011;5897;42.640;23.310;2023-06-26T05:28:39;15.13;;;13.68;;
11681;SDS011;5897;42.640;23.310;2023-06-26T05:31:06;17.17;;;15.40;;
11681;SDS011;5897;42.640;23.310;2023-06-26T05:33:34;16.67;;;14.98;;
11681;SDS011;5897;42.640;23.310;2023-06-26T05:36:03;14.95;;;13.43;;
11681;SDS011;5897;42.640;23.310;2023-06-26T05:38:31;16.70;;;14.90;;
11681;SDS011;5897;42.640;23.310;2023-06-26T05:40:58;15.38;;;13.88;;
11681;SDS011;5897;42.640;23.310;2023-06-26T05:43:27;15.63;;;14.05;;
11681;SDS011;5897;42.640;23.310;2023-06-26T05:45:53;16.00;;;14.07;;
11681;SDS011;5897;42.640;23.310;2023-06-26T05:48:20;15.65;;;14.25;;
11681;SDS011;5897;42.640;23.310;2023-06-26T05:50:47;16.25;;;14.27;;
11681;SDS011;5897;42.640;23.310;2023-06-26T05:53:14;15.68;;;14.07;;
11681;SDS011;5897;42.640;23.310;2023-06-26T05:55:41;15.82;;;14.43;;
11681;SDS011;5897;42.640;23.310;2023-06-26T05:58:09;15.00;;;13.70;;
11681;SDS011;5897;42.640;23.310;2023-06-26T06:00:38;15.35;;;13.95;;
11681;SDS011;5897;42.640;23.310;2023-06-26T06:03:05;15.07;;;13.57;;
11681;SDS011;5897;42.640;23.310;2023-06-26T06:05:32;15.88;;;14.48;;
11681;SDS011;5897;42.640;23.310;2023-06-26T06:07:59;14.63;;;13.20;;
11681;SDS011;5897;42.640;23.310;2023-06-26T06:10:25;14.82;;;13.43;;
11681;SDS011;5897;42.640;23.310;2023-06-26T06:12:52;15.05;;;13.63;;
11681;SDS011;5897;42.640;23.310;2023-06-26T06:15:19;14.80;;;13.40;;
11681;SDS011;5897;42.640;23.310;2023-06-26T06:17:47;15.38;;;13.77;;
11681;SDS011;5897;42.640;23.310;2023-06-26T06:20:14;14.52;;;13.13;;
11681;SDS011;5897;42.640;23.310;2023-06-26T06:22:41;14.50;;;13.20;;
11681;SDS011;5897;42.640;23.310;2023-06-26T06:25:08;14.38;;;12.98;;
11681;SDS011;5897;42.640;23.310;2023-06-26T06:27:35;14.05;;;12.65;;
11681;SDS011;5897;42.640;23.310;2023-06-26T06:30:02;14.02;;;12.82;;
11681;SDS011;5897;42.640;23.310;2023-06-26T06:32:29;16.27;;;12.63;;
11681;SDS011;5897;42.640;23.310;2023-06-26T06:34:57;13.48;;;12.25;;
11681;SDS011;5897;42.640;23.310;2023-06-26T06:37:24;13.57;;;12.35;;
11681;SDS011;5897;42.640;23.310;2023-06-26T06:39:51;13.18;;;11.98;;
11681;SDS011;5897;42.640;23.310;2023-06-26T06:42:18;13.77;;;12.50;;
11681;SDS011;5897;42.640;23.310;2023-06-26T06:44:45;13.57;;;12.30;;
11681;SDS011;5897;42.640;23.310;2023-06-26T06:47:11;14.20;;;12.75;;
11681;SDS011;5897;42.640;23.310;2023-06-26T06:49:38;13.05;;;11.85;;
11681;SDS011;5897;42.640;23.310;2023-06-26T06:52:07;12.38;;;11.23;;
11681;SDS011;5897;42.640;23.310;2023-06-26T06:54:33;11.40;;;10.40;;
11681;SDS011;5897;42.640;23.310;2023-06-26T06:57:17;12.23;;;10.40;;
11681;SDS011;5897;42.640;23.310;2023-06-26T06:59:44;10.80;;;9.85;;
11681;SDS011;5897;42.640;23.310;2023-06-26T07:02:12;10.68;;;9.73;;
11681;SDS011;5897;42.640;23.310;2023-06-26T07:04:39;11.30;;;10.20;;
11681;SDS011;5897;42.640;23.310;2023-06-26T07:07:07;11.68;;;10.52;;
11681;SDS011;5897;42.640;23.310;2023-06-26T07:09:34;12.90;;;10.30;;
11681;SDS011;5897;42.640;23.310;2023-06-26T07:12:01;11.73;;;10.50;;
11681;SDS011;5897;42.640;23.310;2023-06-26T07:14:28;11.73;;;9.88;;
11681;SDS011;5897;42.640;23.310;2023-06-26T07:16:55;10.38;;;8.70;;
11681;SDS011;5897;42.640;23.310;2023-06-26T07:19:22;10.38;;;9.48;;
11681;SDS011;5897;42.640;23.310;2023-06-26T07:21:49;8.98;;;8.18;;
11681;SDS011;5897;42.640;23.310;2023-06-26T07:24:17;9.48;;;8.52;;
11681;SDS011;5897;42.640;23.310;2023-06-26T07:26:44;9.60;;;8.38;;
11681;SDS011;5897;42.640;23.310;2023-06-26T07:29:10;10.30;;;8.15;;
11681;SDS011;5897;42.640;23.310;2023-06-26T07:31:37;8.80;;;7.88;;
11681;SDS011;5897;42.640;23.310;2023-06-26T07:34:04;10.43;;;7.70;;
11681;SDS011;5897;42.640;23.310;2023-06-26T07:36:30;9.70;;;8.73;;
11681;SDS011;5897;42.640;23.310;2023-06-26T07:38:57;8.20;;;7.35;;
11681;SDS011;5897;42.640;23.310;2023-06-26T07:41:25;7.82;;;7.10;;
11681;SDS011;5897;42.640;23.310;2023-06-26T07:43:54;6.85;;;6.13;;
11681;SDS011;5897;42.640;23.310;2023-06-26T07:46:21;6.85;;;6.25;;
11681;SDS011;5897;42.640;23.310;2023-06-26T07:48:47;6.13;;;5.57;;
11681;SDS011;5897;42.640;23.310;2023-06-26T07:51:14;6.40;;;5.80;;
11681;SDS011;5897;42.640;23.310;2023-06-26T07:53:41;7.22;;;6.53;;
11681;SDS011;5897;42.640;23.310;2023-06-26T07:56:08;7.63;;;6.80;;
11681;SDS011;5897;42.640;23.310;2023-06-26T07:58:36;7.20;;;6.57;;
11681;SDS011;5897;42.640;23.310;2023-06-26T08:01:02;6.80;;;6.18;;
11681;SDS011;5897;42.640;23.310;2023-06-26T08:03:29;6.85;;;6.18;;
11681;SDS011;5897;42.640;23.310;2023-06-26T08:05:56;6.28;;;5.07;;
11681;SDS011;5897;42.640;23.310;2023-06-26T08:08:23;5.32;;;4.82;;
11681;SDS011;5897;42.640;23.310;2023-06-26T08:10:49;8.55;;;6.03;;
11681;SDS011;5897;42.640;23.310;2023-06-26T08:13:16;8.82;;;6.30;;
11681;SDS011;5897;42.640;23.310;2023-06-26T08:15:44;6.50;;;5.82;;
11681;SDS011;5897;42.640;23.310;2023-06-26T08:18:11;6.85;;;6.18;;
11681;SDS011;5897;42.640;23.310;2023-06-26T08:20:38;6.13;;;5.57;;
11681;SDS011;5897;42.640;23.310;2023-06-26T08:23:04;6.65;;;5.40;;
11681;SDS011;5897;42.640;23.310;2023-06-26T08:25:32;6.75;;;6.03;;
11681;SDS011;5897;42.640;23.310;2023-06-26T08:27:58;6.53;;;5.30;;
11681;SDS011;5897;42.640;23.310;2023-06-26T08:30:25;7.40;;;5.93;;
11681;SDS011;5897;42.640;23.310;2023-06-26T08:32:54;6.53;;;5.57;;
11681;SDS011;5897;42.640;23.310;2023-06-26T08:35:21;6.45;;;5.88;;
11681;SDS011;5897;42.640;23.310;2023-06-26T08:37:48;6.55;;;5.85;;
11681;SDS011;5897;42.640;23.310;2023-06-26T08:40:16;6.55;;;5.95;;
11681;SDS011;5897;42.640;23.310;2023-06-26T08:42:43;5.93;;;5.40;;
11681;SDS011;5897;42.640;23.310;2023-06-26T08:45:10;5.90;;;5.32;;
11681;SDS011;5897;42.640;23.310;2023-06-26T08:47:37;6.15;;;5.53;;
11681;SDS011;5897;42.640;23.310;2023-06-26T08:50:08;7.40;;;5.05;;
11681;SDS011;5897;42.640;23.310;2023-06-26T08:52:41;6.30;;;5.80;;
11681;SDS011;5897;42.640;23.310;2023-06-26T08:55:11;5.63;;;5.13;;
11681;SDS011;5897;42.640;23.310;2023-06-26T08:57:41;9.90;;;5.07;;
11681;SDS011;5897;42.640;23.310;2023-06-26T09:00:08;6.90;;;5.07;;
11681;SDS011;5897;42.640;23.310;2023-06-26T09:02:36;6.32;;;4.78;;
11681;SDS011;5897;42.640;23.310;2023-06-26T09:05:02;6.32;;;4.85;;
11681;SDS011;5897;42.640;23.310;2023-06-26T09:07:31;5.57;;;5.03;;
11681;SDS011;5897;42.640;23.310;2023-06-26T09:09:58;6.97;;;4.97;;
11681;SDS011;5897;42.640;23.310;2023-06-26T09:12:26;5.05;;;4.53;;
11681;SDS011;5897;42.640;23.310;2023-06-26T09:14:53;5.43;;;4.82;;
11681;SDS011;5897;42.640;23.310;2023-06-26T09:17:23;5.32;;;4.82;;
11681;SDS011;5897;42.640;23.310;2023-06-26T09:19:51;7.00;;;4.80;;
11681;SDS011;5897;42.640;23.310;2023-06-26T09:22:17;4.85;;;4.45;;
11681;SDS011;5897;42.640;23.310;2023-06-26T09:24:46;5.18;;;4.70;;
11681;SDS011;5897;42.640;23.310;2023-06-26T09:27:13;5.30;;;4.53;;
11681;SDS011;5897;42.640;23.310;2023-06-26T09:29:40;4.70;;;4.30;;
11681;SDS011;5897;42.640;23.310;2023-06-26T09:32:07;6.15;;;4.95;;
11681;SDS011;5897;42.640;23.310;2023-06-26T09:34:34;5.10;;;4.45;;
11681;SDS011;5897;42.640;23.310;2023-06-26T09:37:01;6.10;;;4.53;;
11681;SDS011;5897;42.640;23.310;2023-06-26T09:39:29;5.00;;;4.50;;
11681;SDS011;5897;42.640;23.310;2023-06-26T09:41:58;6.53;;;4.97;;
11681;SDS011;5897;42.640;23.310;2023-06-26T09:44:27;5.93;;;4.97;;
11681;SDS011;5897;42.640;23.310;2023-06-26T09:46:54;6.38;;;5.15;;
11681;SDS011;5897;42.640;23.310;2023-06-26T09:49:21;5.20;;;4.80;;
11681;SDS011;5897;42.640;23.310;2023-06-26T09:51:51;6.63;;;5.05;;
11681;SDS011;5897;42.640;23.310;2023-06-26T09:54:17;5.13;;;4.72;;
11681;SDS011;5897;42.640;23.310;2023-06-26T09:56:47;5.78;;;4.85;;
11681;SDS011;5897;42.640;23.310;2023-06-26T09:59:15;6.72;;;4.30;;
11681;SDS011;5897;42.640;23.310;2023-06-26T10:01:43;4.63;;;4.22;;
11681;SDS011;5897;42.640;23.310;2023-06-26T10:04:12;4.68;;;4.22;;
11681;SDS011;5897;42.640;23.310;2023-06-26T10:06:41;5.78;;;4.47;;
11681;SDS011;5897;42.640;23.310;2023-06-26T10:09:12;5.30;;;4.80;;
11681;SDS011;5897;42.640;23.310;2023-06-26T10:11:45;7.03;;;4.95;;
11681;SDS011;5897;42.640;23.310;2023-06-26T10:14:18;6.10;;;4.32;;
11681;SDS011;5897;42.640;23.310;2023-06-26T10:16:48;4.90;;;4.35;;
11681;SDS011;5897;42.640;23.310;2023-06-26T10:19:16;5.95;;;4.55;;
11681;SDS011;5897;42.640;23.310;2023-06-26T10:21:49;7.32;;;4.47;;
11681;SDS011;5897;42.640;23.310;2023-06-26T10:24:17;4.88;;;4.13;;
11681;SDS011;5897;42.640;23.310;2023-06-26T10:26:45;4.95;;;4.55;;
11681;SDS011;5897;42.640;23.310;2023-06-26T10:29:15;5.68;;;4.47;;
11681;SDS011;5897;42.640;23.310;2023-06-26T10:31:49;4.97;;;4.53;;
11681;SDS011;5897;42.640;23.310;2023-06-26T10:34:17;5.55;;;4.30;;
11681;SDS011;5897;42.640;23.310;2023-06-26T10:36:45;4.30;;;3.90;;
11681;SDS011;5897;42.640;23.310;2023-06-26T10:39:12;4.57;;;3.92;;
11681;SDS011;5897;42.640;23.310;2023-06-26T10:41:39;6.18;;;4.20;;
11681;SDS011;5897;42.640;23.310;2023-06-26T10:44:08;4.55;;;4.15;;
11681;SDS011;5897;42.640;23.310;2023-06-26T10:46:50;4.60;;;4.20;;
11681;SDS011;5897;42.640;23.310;2023-06-26T10:49:18;7.03;;;4.53;;
11681;SDS011;5897;42.640;23.310;2023-06-26T10:51:47;6.20;;;4.60;;
11681;SDS011;5897;42.640;23.310;2023-06-26T10:54:15;5.15;;;4.65;;
11681;SDS011;5897;42.640;23.310;2023-06-26T10:56:44;4.80;;;4.40;;
11681;SDS011;5897;42.640;23.310;2023-06-26T10:59:14;5.47;;;4.40;;
11681;SDS011;5897;42.640;23.310;2023-06-26T11:01:43;6.57;;;4.72;;
11681;SDS011;5897;42.640;23.310;2023-06-26T11:04:13;5.25;;;4.07;;
11681;SDS011;5897;42.640;23.310;2023-06-26T11:06:43;4.80;;;4.40;;
11681;SDS011;5897;42.640;23.310;2023-06-26T11:09:14;5.10;;;4.60;;
11681;SDS011;5897;42.640;23.310;2023-06-26T11:11:55;6.80;;;4.68;;
11681;SDS011;5897;42.640;23.310;2023-06-26T11:14:30;5.53;;;5.03;;
11681;SDS011;5897;42.640;23.310;2023-06-26T11:16:58;5.80;;;5.22;;
11681;SDS011;5897;42.640;23.310;2023-06-26T11:19:27;7.28;;;5.35;;
11681;SDS011;5897;42.640;23.310;2023-06-26T11:21:57;7.60;;;5.07;;
11681;SDS011;5897;42.640;23.310;2023-06-26T11:24:26;5.57;;;4.95;;
11681;SDS011;5897;42.640;23.310;2023-06-26T11:26:54;7.55;;;5.32;;
11681;SDS011;5897;42.640;23.310;2023-06-26T11:29:25;6.57;;;5.30;;
11681;SDS011;5897;42.640;23.310;2023-06-26T11:31:58;5.35;;;4.85;;
11681;SDS011;5897;42.640;23.310;2023-06-26T11:34:29;6.05;;;4.68;;
11681;SDS011;5897;42.640;23.310;2023-06-26T11:36:56;7.82;;;4.55;;
11681;SDS011;5897;42.640;23.310;2023-06-26T11:39:26;5.05;;;4.53;;
11681;SDS011;5897;42.640;23.310;2023-06-26T11:41:53;7.03;;;4.30;;
11681;SDS011;5897;42.640;23.310;2023-06-26T11:44:19;4.80;;;4.30;;
11681;SDS011;5897;42.640;23.310;2023-06-26T11:46:50;4.63;;;4.22;;
11681;SDS011;5897;42.640;23.310;2023-06-26T11:49:20;4.63;;;3.92;;
11681;SDS011;5897;42.640;23.310;2023-06-26T11:51:52;4.95;;;4.50;;
11681;SDS011;5897;42.640;23.310;2023-06-26T11:54:23;5.10;;;4.40;;
11681;SDS011;5897;42.640;23.310;2023-06-26T11:56:52;8.65;;;4.70;;
11681;SDS011;5897;42.640;23.310;2023-06-26T11:59:21;6.43;;;4.75;;
11681;SDS011;5897;42.640;23.310;2023-06-26T12:01:49;6.60;;;4.88;;
11681;SDS011;5897;42.640;23.310;2023-06-26T12:04:16;6.35;;;5.13;;
11681;SDS011;5897;42.640;23.310;2023-06-26T12:06:45;5.78;;;5.18;;
11681;SDS011;5897;42.640;23.310;2023-06-26T12:09:15;8.10;;;5.15;;
11681;SDS011;5897;42.640;23.310;2023-06-26T12:11:45;5.78;;;5.13;;
11681;SDS011;5897;42.640;23.310;2023-06-26T12:14:13;5.50;;;5.00;;
11681;SDS011;5897;42.640;23.310;2023-06-26T12:16:41;7.60;;;5.10;;
11681;SDS011;5897;42.640;23.310;2023-06-26T12:19:08;6.93;;;4.93;;
11681;SDS011;5897;42.640;23.310;2023-06-26T12:21:45;6.22;;;5.10;;
11681;SDS011;5897;42.640;23.310;2023-06-26T12:24:19;5.53;;;5.03;;
11681;SDS011;5897;42.640;23.310;2023-06-26T12:26:47;5.53;;;4.63;;
11681;SDS011;5897;42.640;23.310;2023-06-26T12:29:17;6.57;;;4.63;;
11681;SDS011;5897;42.640;23.310;2023-06-26T12:31:46;6.13;;;4.82;;
11681;SDS011;5897;42.640;23.310;2023-06-26T12:34:18;4.78;;;4.28;;
11681;SDS011;5897;42.640;23.310;2023-06-26T12:36:47;7.57;;;4.60;;
11681;SDS011;5897;42.640;23.310;2023-06-26T12:39:15;4.38;;;3.97;;
11681;SDS011;5897;42.640;23.310;2023-06-26T12:41:51;6.72;;;4.35;;
11681;SDS011;5897;42.640;23.310;2023-06-26T12:44:20;9.65;;;5.32;;
11681;SDS011;5897;42.640;23.310;2023-06-26T12:46:47;5.43;;;4.93;;
11681;SDS011;5897;42.640;23.310;2023-06-26T12:49:15;5.65;;;4.80;;
11681;SDS011;5897;42.640;23.310;2023-06-26T12:51:42;5.15;;;4.75;;
11681;SDS011;5897;42.640;23.310;2023-06-26T12:54:09;5.20;;;4.65;;
11681;SDS011;5897;42.640;23.310;2023-06-26T12:56:36;8.88;;;5.00;;
11681;SDS011;5897;42.640;23.310;2023-06-26T12:59:04;5.72;;;4.65;;
11681;SDS011;5897;42.640;23.310;2023-06-26T13:01:31;7.07;;;4.78;;
11681;SDS011;5897;42.640;23.310;2023-06-26T13:03:59;5.22;;;4.72;;
11681;SDS011;5897;42.640;23.310;2023-06-26T13:06:26;6.07;;;4.78;;
11681;SDS011;5897;42.640;23.310;2023-06-26T13:08:52;4.97;;;4.57;;
11681;SDS011;5897;42.640;23.310;2023-06-26T13:11:19;6.93;;;5.07;;
11681;SDS011;5897;42.640;23.310;2023-06-26T13:13:46;7.90;;;5.20;;
11681;SDS011;5897;42.640;23.310;2023-06-26T13:16:15;7.45;;;5.28;;
11681;SDS011;5897;42.640;23.310;2023-06-26T13:18:43;6.28;;;4.80;;
11681;SDS011;5897;42.640;23.310;2023-06-26T13:21:10;9.90;;;5.30;;
11681;SDS011;5897;42.640;23.310;2023-06-26T13:23:37;6.35;;;5.65;;
11681;SDS011;5897;42.640;23.310;2023-06-26T13:26:04;6.25;;;5.75;;
11681;SDS011;5897;42.640;23.310;2023-06-26T13:28:31;6.50;;;5.90;;
11681;SDS011;5897;42.640;23.310;2023-06-26T13:30:58;7.15;;;5.75;;
11681;SDS011;5897;42.640;23.310;2023-06-26T13:33:26;7.57;;;5.10;;
11681;SDS011;5897;42.640;23.310;2023-06-26T13:35:53;5.20;;;4.70;;
11681;SDS011;5897;42.640;23.310;2023-06-26T13:38:20;5.82;;;4.80;;
11681;SDS011;5897;42.640;23.310;2023-06-26T13:40:49;6.28;;;4.70;;
11681;SDS011;5897;42.640;23.310;2023-06-26T13:43:16;5.90;;;4.35;;
11681;SDS011;5897;42.640;23.310;2023-06-26T13:45:43;8.63;;;4.57;;
11681;SDS011;5897;42.640;23.310;2023-06-26T13:48:10;5.25;;;4.75;;
11681;SDS011;5897;42.640;23.310;2023-06-26T13:50:38;8.52;;;4.68;;
11681;SDS011;5897;42.640;23.310;2023-06-26T13:53:06;4.82;;;4.30;;
11681;SDS011;5897;42.640;23.310;2023-06-26T13:55:33;4.60;;;4.20;;
11681;SDS011;5897;42.640;23.310;2023-06-26T13:58:00;8.05;;;4.40;;
11681;SDS011;5897;42.640;23.310;2023-06-26T14:00:29;4.75;;;4.22;;
11681;SDS011;5897;42.640;23.310;2023-06-26T14:02:56;6.68;;;4.68;;
11681;SDS011;5897;42.640;23.310;2023-06-26T14:05:23;5.65;;;4.88;;
11681;SDS011;5897;42.640;23.310;2023-06-26T14:07:51;6.13;;;5.15;;
11681;SDS011;5897;42.640;23.310;2023-06-26T14:10:19;7.18;;;5.07;;
11681;SDS011;5897;42.640;23.310;2023-06-26T14:12:46;5.18;;;4.75;;
11681;SDS011;5897;42.640;23.310;2023-06-26T14:15:13;9.20;;;5.38;;
11681;SDS011;5897;42.640;23.310;2023-06-26T14:17:39;5.68;;;5.00;;
11681;SDS011;5897;42.640;23.310;2023-06-26T14:20:06;6.10;;;4.85;;
11681;SDS011;5897;42.640;23.310;2023-06-26T14:22:35;6.13;;;5.25;;
11681;SDS011;5897;42.640;23.310;2023-06-26T14:25:04;5.32;;;4.70;;
11681;SDS011;5897;42.640;23.310;2023-06-26T14:27:31;5.10;;;4.60;;
11681;SDS011;5897;42.640;23.310;2023-06-26T14:29:58;5.05;;;4.35;;
11681;SDS011;5897;42.640;23.310;2023-06-26T14:32:24;5.38;;;4.65;;
11681;SDS011;5897;42.640;23.310;2023-06-26T14:34:51;4.90;;;4.50;;
11681;SDS011;5897;42.640;23.310;2023-06-26T14:37:18;9.23;;;4.97;;
11681;SDS011;5897;42.640;23.310;2023-06-26T14:39:45;4.63;;;4.18;;
11681;SDS011;5897;42.640;23.310;2023-06-26T14:42:13;4.28;;;3.88;;